createdAt,value
2017-10-25T00:01:46.657Z,1.20
2017-10-25T00:04:12.979Z,1.10
2017-10-25T00:06:39.270Z,1.23
2017-10-25T00:09:06.117Z,1.17
2017-10-25T00:11:32.976Z,1.20
2017-10-25T00:13:59.302Z,1.20
2017-10-25T00:16:25.953Z,1.00
2017-10-25T00:18:52.614Z,1.10
2017-10-25T00:21:18.918Z,1.20
2017-10-25T00:23:45.233Z,0.90
2017-10-25T00:26:12.918Z,1.00
2017-10-25T00:28:39.241Z,1.13
2017-10-25T00:31:07.562Z,1.40
2017-10-25T00:33:33.867Z,1.17
2017-10-25T00:36:00.740Z,1.20
2017-10-25T00:38:27.047Z,2.23
2017-10-25T00:40:54.119Z,1.30
2017-10-25T00:43:20.478Z,1.20
2017-10-25T00:45:46.820Z,1.20
2017-10-25T00:48:13.230Z,1.07
2017-10-25T00:50:39.586Z,1.40
2017-10-25T00:53:07.529Z,1.13
2017-10-25T00:55:34.115Z,1.10
2017-10-25T00:58:00.459Z,1.10
2017-10-25T01:00:27.150Z,1.30
2017-10-25T01:02:53.443Z,1.10
2017-10-25T01:05:19.779Z,1.20
2017-10-25T01:07:46.150Z,1.23
2017-10-25T01:10:13.579Z,1.57
2017-10-25T01:12:39.892Z,1.10
2017-10-25T01:15:06.699Z,1.20
2017-10-25T01:17:34.240Z,1.00
2017-10-25T01:20:00.935Z,1.30
2017-10-25T01:22:27.278Z,1.07
2017-10-25T01:31:36.491Z,1.13
2017-10-25T01:34:03.202Z,1.10
2017-10-25T01:36:30.292Z,1.20
2017-10-25T01:38:56.619Z,1.33
2017-10-25T01:41:23.034Z,1.37
2017-10-25T01:43:50.100Z,1.20
2017-10-25T01:46:16.610Z,1.00
2017-10-25T01:48:43.007Z,1.10
2017-10-25T01:51:09.898Z,1.23
2017-10-25T01:53:36.229Z,1.20
2017-10-25T01:56:02.570Z,1.40
2017-10-25T01:58:29.063Z,1.27
2017-10-25T02:00:56.171Z,1.07
2017-10-25T02:03:23.239Z,1.27
2017-10-25T02:05:50.311Z,1.10
2017-10-25T02:08:16.771Z,1.10
2017-10-25T02:10:43.606Z,1.20
2017-10-25T02:13:10.483Z,1.10
2017-10-25T02:15:36.799Z,1.07
2017-10-25T02:18:03.559Z,1.20
2017-10-25T02:20:29.899Z,1.10
2017-10-25T02:22:56.239Z,1.07
2017-10-25T02:25:23.591Z,1.10
2017-10-25T02:27:49.931Z,1.03
2017-10-25T02:30:16.251Z,1.00
2017-10-25T02:32:42.621Z,1.37
2017-10-25T02:35:09.552Z,1.10
2017-10-25T02:37:35.846Z,1.00
2017-10-25T02:40:02.171Z,1.00
2017-10-25T02:42:29.539Z,0.90
2017-10-25T02:44:55.853Z,1.00
2017-10-25T02:47:22.159Z,0.80
2017-10-25T02:49:48.499Z,1.20
2017-10-25T02:52:14.801Z,1.00
2017-10-25T02:54:41.283Z,0.90
2017-10-25T02:57:07.763Z,0.90
2017-10-25T02:59:34.068Z,1.00
2017-10-25T03:02:00.809Z,1.10
2017-10-25T03:04:27.111Z,0.90
2017-10-25T03:06:53.419Z,1.10
2017-10-25T03:09:20.112Z,0.80
2017-10-25T03:11:46.444Z,0.90
2017-10-25T03:14:12.772Z,1.00
2017-10-25T03:16:39.141Z,1.07
2017-10-25T03:19:05.900Z,1.00
2017-10-25T03:21:32.987Z,0.90
2017-10-25T03:23:59.623Z,1.03
2017-10-25T03:26:26.308Z,0.93
2017-10-25T03:28:52.610Z,1.00
2017-10-25T03:31:19.579Z,1.30
2017-10-25T03:33:45.883Z,1.00
2017-10-25T03:36:12.675Z,1.00
2017-10-25T03:38:39.019Z,0.90
2017-10-25T03:41:05.695Z,1.00
2017-10-25T03:43:32.783Z,0.90
2017-10-25T03:46:14.529Z,1.03
2017-10-25T03:48:41.589Z,1.10
2017-10-25T03:51:08.639Z,1.00
2017-10-25T03:53:35.714Z,1.10
2017-10-25T03:56:02.079Z,1.03
2017-10-25T03:58:28.888Z,1.00
2017-10-25T04:00:55.685Z,1.00
2017-10-25T04:03:21.991Z,1.10
2017-10-25T04:05:48.279Z,0.90
2017-10-25T04:08:15.044Z,1.10
2017-10-25T04:10:42.472Z,0.90
2017-10-25T04:13:08.775Z,0.97
2017-10-25T04:15:35.571Z,0.90
2017-10-25T04:18:03.003Z,1.87
2017-10-25T04:20:29.779Z,1.20
2017-10-25T04:22:56.723Z,1.03
2017-10-25T04:25:23.482Z,1.00
2017-10-25T04:27:50.552Z,1.20
2017-10-25T04:30:17.591Z,1.23
2017-10-25T04:32:45.139Z,1.30
2017-10-25T04:35:12.431Z,0.90
2017-10-25T04:37:39.407Z,1.00
2017-10-25T04:40:05.731Z,1.57
2017-10-25T04:42:32.035Z,1.40
2017-10-25T04:44:59.499Z,1.40
2017-10-25T04:47:26.551Z,1.00
2017-10-25T04:49:53.598Z,1.13
2017-10-25T04:52:20.685Z,1.17
2017-10-25T04:54:47.299Z,1.13
2017-10-25T04:57:14.351Z,0.83
2017-10-25T04:59:41.879Z,1.10
2017-10-25T05:02:08.194Z,2.00
2017-10-25T05:04:34.999Z,1.10
2017-10-25T05:07:02.063Z,0.90
2017-10-25T05:09:29.653Z,1.00
2017-10-25T05:11:55.962Z,1.20
2017-10-25T05:14:23.007Z,1.10
2017-10-25T05:16:50.108Z,1.10
2017-10-25T05:19:16.941Z,1.00
2017-10-25T05:21:43.259Z,0.90
2017-10-25T05:24:09.595Z,1.07
2017-10-25T05:26:36.043Z,1.07
2017-10-25T05:29:03.263Z,0.97
2017-10-25T05:31:30.455Z,1.10
2017-10-25T05:33:57.271Z,0.93
2017-10-25T05:36:24.171Z,0.90
2017-10-25T05:38:50.491Z,0.90
2017-10-25T05:41:17.270Z,1.20
2017-10-25T05:43:43.906Z,1.00
2017-10-25T05:46:10.255Z,1.07
2017-10-25T05:48:36.578Z,1.10
2017-10-25T05:51:03.155Z,1.17
2017-10-25T05:53:29.470Z,1.10
2017-10-25T05:55:55.879Z,1.10
2017-10-25T05:58:22.538Z,1.17
2017-10-25T06:00:48.851Z,1.20
2017-10-25T06:03:15.503Z,1.00
2017-10-25T06:05:41.803Z,0.90
2017-10-25T06:08:08.842Z,1.20
2017-10-25T06:10:35.902Z,1.90
2017-10-25T06:13:03.476Z,1.13
2017-10-25T06:15:31.244Z,1.37
2017-10-25T06:17:58.655Z,1.10
2017-10-25T06:20:24.978Z,0.90
2017-10-25T06:22:51.311Z,1.03
2017-10-25T06:25:18.275Z,1.47
2017-10-25T06:27:44.575Z,1.00
2017-10-25T06:30:10.915Z,1.10
2017-10-25T06:32:37.259Z,1.10
2017-10-25T06:35:04.114Z,1.40
2017-10-25T06:37:30.439Z,1.40
2017-10-25T06:39:57.276Z,1.10
2017-10-25T06:42:24.351Z,0.90
2017-10-25T06:44:50.738Z,1.20
2017-10-25T06:47:17.225Z,1.00
2017-10-25T06:49:43.583Z,1.20
2017-10-25T06:52:10.011Z,1.00
2017-10-25T06:54:36.376Z,1.10
2017-10-25T06:57:02.699Z,0.83
2017-10-25T06:59:29.523Z,1.00
2017-10-25T07:01:55.819Z,1.10
2017-10-25T07:04:22.879Z,1.30
2017-10-25T07:06:49.964Z,1.10
2017-10-25T07:09:16.272Z,1.00
2017-10-25T07:11:43.739Z,1.00
2017-10-25T07:14:11.246Z,1.10
2017-10-25T07:16:37.539Z,1.00
2017-10-25T07:19:04.309Z,1.23
2017-10-25T07:21:31.042Z,1.23
2017-10-25T07:23:57.355Z,1.10
2017-10-25T07:26:24.890Z,1.37
2017-10-25T07:28:51.200Z,1.03
2017-10-25T07:31:17.501Z,1.10
2017-10-25T07:33:44.674Z,1.17
2017-10-25T07:36:11.547Z,1.17
2017-10-25T07:38:38.329Z,1.30
2017-10-25T07:41:04.683Z,1.00
2017-10-25T07:43:31.727Z,1.30
2017-10-25T07:45:58.095Z,1.20
2017-10-25T07:48:24.396Z,1.37
2017-10-25T07:50:50.795Z,1.20
2017-10-25T07:53:17.119Z,1.13
2017-10-25T07:55:43.422Z,1.20
2017-10-25T07:58:11.062Z,1.27
2017-10-25T08:00:37.358Z,2.03
2017-10-25T08:03:03.668Z,1.00
2017-10-25T08:05:30.004Z,1.07
2017-10-25T08:07:56.311Z,0.97
2017-10-25T08:10:23.051Z,1.37
2017-10-25T08:12:49.851Z,1.00
2017-10-25T08:15:16.156Z,0.97
2017-10-25T08:17:43.609Z,1.00
2017-10-25T08:20:11.335Z,1.10
2017-10-25T08:22:37.631Z,1.10
2017-10-25T08:25:03.958Z,1.20
2017-10-25T08:27:31.143Z,1.20
2017-10-25T08:29:57.460Z,1.50
2017-10-25T08:32:23.850Z,1.30
2017-10-25T08:34:50.654Z,1.20
2017-10-25T08:37:16.962Z,1.30
2017-10-25T08:39:44.038Z,1.50
2017-10-25T08:42:10.550Z,1.10
2017-10-25T08:44:37.633Z,1.07
2017-10-25T08:47:04.071Z,1.10
2017-10-25T08:49:30.508Z,0.97
2017-10-25T08:51:56.843Z,0.97
2017-10-25T08:54:24.510Z,1.10
2017-10-25T08:56:51.413Z,1.20
2017-10-25T08:59:17.747Z,1.20
2017-10-25T09:01:44.091Z,1.70
2017-10-25T09:04:10.470Z,1.10
2017-10-25T09:06:36.806Z,0.80
2017-10-25T09:09:04.081Z,1.17
2017-10-25T09:11:30.831Z,1.20
2017-10-25T09:13:57.593Z,1.30
2017-10-25T09:16:24.145Z,1.10
2017-10-25T09:18:51.177Z,1.70
2017-10-25T09:21:17.486Z,1.30
2017-10-25T09:23:43.790Z,1.13
2017-10-25T09:26:10.746Z,1.30
2017-10-25T09:28:37.054Z,1.27
2017-10-25T09:31:03.865Z,1.20
2017-10-25T09:33:30.507Z,1.30
2017-10-25T09:35:57.247Z,1.13
2017-10-25T09:38:23.548Z,1.30
2017-10-25T09:40:49.844Z,1.20
2017-10-25T09:43:16.178Z,1.10
2017-10-25T09:45:42.511Z,1.37
2017-10-25T09:48:08.925Z,1.17
2017-10-25T09:50:35.740Z,1.10
2017-10-25T09:53:02.644Z,1.43
2017-10-25T09:55:28.958Z,1.00
2017-10-25T09:57:55.267Z,1.00
2017-10-25T10:00:22.038Z,0.90
2017-10-25T10:02:48.345Z,1.00
2017-10-25T10:05:14.668Z,1.30
2017-10-25T10:07:41.321Z,1.10
2017-10-25T10:10:07.632Z,1.30
2017-10-25T10:12:34.284Z,0.80
2017-10-25T10:15:00.595Z,0.80
2017-10-25T10:17:27.551Z,1.10
2017-10-25T10:19:53.856Z,1.10
2017-10-25T10:22:20.247Z,1.00
2017-10-25T10:24:46.586Z,1.10
2017-10-25T10:27:12.887Z,1.23
2017-10-25T10:29:39.807Z,0.90
2017-10-25T10:32:06.137Z,1.37
2017-10-25T10:34:33.550Z,1.37
2017-10-25T10:37:00.125Z,0.90
2017-10-25T10:39:27.225Z,1.03
2017-10-25T10:41:53.599Z,1.13
2017-10-25T10:44:19.907Z,0.97
2017-10-25T10:46:46.599Z,0.90
2017-10-25T10:49:13.439Z,1.00
2017-10-25T10:51:40.110Z,1.30
2017-10-25T10:54:07.795Z,1.20
2017-10-25T10:56:34.103Z,0.97
2017-10-25T10:59:01.172Z,1.10
2017-10-25T11:01:28.043Z,1.37
2017-10-25T11:03:54.875Z,1.37
2017-10-25T11:06:21.216Z,1.10
2017-10-25T11:08:47.566Z,0.90
2017-10-25T11:11:14.304Z,1.10
2017-10-25T11:13:40.642Z,1.10
2017-10-25T11:16:06.995Z,1.20
2017-10-25T11:18:34.015Z,1.10
2017-10-25T11:21:00.368Z,1.13
2017-10-25T11:23:26.682Z,1.03
2017-10-25T11:25:53.783Z,1.10
2017-10-25T11:28:20.599Z,1.10
2017-10-25T11:30:46.940Z,1.00
2017-10-25T11:33:13.297Z,1.17
2017-10-25T11:35:40.252Z,1.50
2017-10-25T11:38:07.187Z,1.30
2017-10-25T11:40:33.514Z,1.30
2017-10-25T11:43:00.268Z,1.30
2017-10-25T11:45:27.038Z,1.03
2017-10-25T11:47:53.865Z,1.07
2017-10-25T11:50:20.188Z,1.13
2017-10-25T11:52:46.894Z,1.37
2017-10-25T11:55:13.194Z,1.13
2017-10-25T11:57:39.813Z,1.90
2017-10-25T12:00:06.143Z,1.60
2017-10-25T12:02:32.924Z,1.27
2017-10-25T12:04:59.222Z,1.80
2017-10-25T12:07:25.552Z,1.33
2017-10-25T12:09:51.888Z,1.03
2017-10-25T12:12:18.671Z,2.23
2017-10-25T12:14:44.990Z,1.80
2017-10-25T12:17:11.326Z,1.60
2017-10-25T12:19:38.254Z,1.27
2017-10-25T12:22:04.600Z,1.43
2017-10-25T12:24:30.959Z,1.13
2017-10-25T12:26:57.647Z,1.30
2017-10-25T12:29:23.974Z,1.03
2017-10-25T12:31:50.301Z,1.00
2017-10-25T12:34:17.194Z,1.07
2017-10-25T12:36:43.527Z,1.10
2017-10-25T12:39:10.602Z,1.17
2017-10-25T12:41:37.460Z,1.00
2017-10-25T12:44:03.794Z,1.10
2017-10-25T12:46:30.591Z,1.20
2017-10-25T12:48:56.938Z,0.80
2017-10-25T12:51:24.008Z,1.00
2017-10-25T12:53:50.371Z,1.30
2017-10-25T12:56:17.418Z,0.90
2017-10-25T12:58:44.435Z,1.00
2017-10-25T13:01:11.505Z,1.00
2017-10-25T13:03:37.838Z,1.30
2017-10-25T13:06:04.199Z,1.10
2017-10-25T13:08:30.534Z,1.40
2017-10-25T13:11:21.468Z,1.30
2017-10-25T13:14:12.654Z,1.10
2017-10-25T13:16:50.580Z,0.80
2017-10-25T13:19:17.492Z,1.00
2017-10-25T13:21:43.818Z,1.10
2017-10-25T13:24:10.545Z,1.10
2017-10-25T13:26:37.264Z,1.43
2017-10-25T13:29:22.662Z,0.97
2017-10-25T13:32:07.196Z,1.10
2017-10-25T13:34:54.838Z,1.00
2017-10-25T13:37:41.185Z,1.10
2017-10-25T13:40:27.363Z,1.10
2017-10-25T13:43:06.949Z,1.30
2017-10-25T13:45:33.283Z,1.80
2017-10-25T13:47:59.602Z,1.17
2017-10-25T13:50:26.753Z,1.13
2017-10-25T13:52:54.230Z,0.90
2017-10-25T13:55:21.307Z,1.43
2017-10-25T13:57:48.140Z,1.10
2017-10-25T14:00:14.483Z,1.10
2017-10-25T14:02:40.862Z,0.97
2017-10-25T14:05:07.408Z,1.07
2017-10-25T14:07:33.759Z,1.00
2017-10-25T14:10:00.211Z,0.80
2017-10-25T14:12:28.394Z,1.00
2017-10-25T14:14:56.012Z,1.10
2017-10-25T14:17:23.767Z,1.17
2017-10-25T14:19:50.135Z,1.10
2017-10-25T14:22:16.906Z,1.07
2017-10-25T14:24:43.982Z,1.00
2017-10-25T14:27:32.294Z,1.00
2017-10-25T14:29:58.621Z,1.10
2017-10-25T14:32:25.039Z,1.10
2017-10-25T14:34:51.978Z,0.70
2017-10-25T14:37:18.305Z,0.90
2017-10-25T14:39:44.633Z,1.10
2017-10-25T14:42:11.655Z,1.10
2017-10-25T14:44:38.743Z,0.90
2017-10-25T14:47:05.087Z,1.03
2017-10-25T14:49:31.926Z,1.00
2017-10-25T14:51:58.246Z,0.90
2017-10-25T14:54:25.055Z,1.00
2017-10-25T14:56:51.947Z,0.97
2017-10-25T14:59:18.322Z,1.00
2017-10-25T15:01:44.681Z,0.93
2017-10-25T15:04:11.087Z,1.20
2017-10-25T15:06:38.070Z,1.33
2017-10-25T15:09:04.970Z,1.30
2017-10-25T15:11:31.590Z,1.10
2017-10-25T15:13:58.514Z,1.03
2017-10-25T15:16:24.867Z,1.10
2017-10-25T15:18:52.359Z,1.83
2017-10-25T15:21:19.091Z,1.40
2017-10-25T15:23:45.892Z,1.60
2017-10-25T15:26:12.679Z,1.50
2017-10-25T15:28:40.744Z,1.30
2017-10-25T15:31:08.572Z,1.00
2017-10-25T15:33:35.434Z,1.40
2017-10-25T15:36:02.291Z,1.20
2017-10-25T15:38:29.093Z,1.10
2017-10-25T15:40:55.774Z,1.20
2017-10-25T15:43:22.519Z,1.30
2017-10-25T15:45:50.127Z,1.63
2017-10-25T15:48:16.962Z,1.50
2017-10-25T15:50:44.020Z,1.70
2017-10-25T15:53:11.453Z,1.27
2017-10-25T15:55:37.788Z,1.00
2017-10-25T15:58:04.483Z,1.70
2017-10-25T16:00:31.225Z,2.30
2017-10-25T16:02:57.581Z,2.20
2017-10-25T16:05:23.875Z,2.00
2017-10-25T16:07:51.073Z,2.43
2017-10-25T16:10:17.373Z,2.80
2017-10-25T16:12:44.282Z,3.50
2017-10-25T16:15:10.603Z,3.50
2017-10-25T16:17:37.367Z,4.00
2017-10-25T16:20:04.083Z,4.00
2017-10-25T16:22:30.448Z,3.43
2017-10-25T16:24:56.751Z,2.50
2017-10-25T16:27:23.112Z,2.10
2017-10-25T16:29:49.412Z,1.60
2017-10-25T16:32:15.810Z,1.67
2017-10-25T16:34:42.739Z,1.87
2017-10-25T16:37:09.443Z,2.90
2017-10-25T16:39:36.431Z,3.27
2017-10-25T16:42:03.091Z,6.10
2017-10-25T16:44:29.846Z,6.30
2017-10-25T16:46:56.587Z,5.00
2017-10-25T16:49:23.391Z,5.27
2017-10-25T16:51:49.692Z,4.60
2017-10-25T16:54:16.820Z,3.00
2017-10-25T16:56:58.827Z,2.97
2017-10-25T16:59:25.147Z,3.30
2017-10-25T17:01:51.447Z,2.60
2017-10-25T17:04:17.811Z,3.40
2017-10-25T17:06:44.195Z,3.40
2017-10-25T17:09:10.608Z,3.43
2017-10-25T17:11:36.973Z,2.40
2017-10-25T17:14:03.791Z,4.40
2017-10-25T17:16:30.123Z,27.60
2017-10-25T17:18:56.770Z,15.40
2017-10-25T17:21:24.299Z,6.13
2017-10-25T17:23:50.619Z,3.60
2017-10-25T17:26:17.015Z,3.53
2017-10-25T17:28:44.116Z,2.83
2017-10-25T17:31:10.467Z,2.40
2017-10-25T17:33:37.503Z,1.90
2017-10-25T17:36:04.491Z,2.07
2017-10-25T17:38:31.112Z,2.40
2017-10-25T17:40:57.900Z,1.80
2017-10-25T17:43:25.327Z,3.60
2017-10-25T17:45:51.991Z,3.00
2017-10-25T17:48:19.007Z,2.70
2017-10-25T17:50:45.745Z,2.67
2017-10-25T17:53:12.369Z,4.60
2017-10-25T17:55:39.011Z,4.50
2017-10-25T17:58:05.871Z,3.67
2017-10-25T18:00:33.106Z,2.47
2017-10-25T18:03:00.084Z,3.50
2017-10-25T18:05:26.763Z,2.17
2017-10-25T18:07:53.471Z,1.53
2017-10-25T18:10:20.340Z,2.20
2017-10-25T18:12:47.151Z,2.27
2017-10-25T18:15:13.917Z,2.10
2017-10-25T18:17:40.656Z,1.80
2017-10-25T18:20:07.410Z,4.70
2017-10-25T18:22:34.231Z,4.30
2017-10-25T18:25:00.561Z,3.27
2017-10-25T18:27:27.647Z,2.97
2017-10-25T18:29:54.067Z,3.10
2017-10-25T18:32:20.759Z,4.53
2017-10-25T18:34:47.699Z,3.67
2017-10-25T18:37:14.054Z,4.13
2017-10-25T18:39:40.914Z,3.27
2017-10-25T18:42:07.696Z,2.67
2017-10-25T18:44:34.331Z,3.13
2017-10-25T18:47:00.643Z,1.90
2017-10-25T18:49:27.014Z,2.17
2017-10-25T18:51:53.362Z,1.73
2017-10-25T18:54:20.232Z,1.70
2017-10-25T18:56:46.535Z,1.50
2017-10-25T18:59:12.837Z,1.57
2017-10-25T19:01:39.218Z,1.70
2017-10-25T19:04:05.557Z,1.50
2017-10-25T19:06:31.949Z,2.30
2017-10-25T19:08:58.749Z,2.40
2017-10-25T19:11:25.079Z,2.20
2017-10-25T19:13:51.782Z,2.43
2017-10-25T19:16:18.815Z,2.00
2017-10-25T19:18:45.571Z,1.97
2017-10-25T19:21:13.302Z,2.10
2017-10-25T19:23:39.997Z,1.90
2017-10-25T19:26:07.061Z,1.90
2017-10-25T19:28:34.503Z,1.40
2017-10-25T19:31:00.822Z,1.97
2017-10-25T19:33:27.465Z,2.40
2017-10-25T19:35:54.964Z,1.90
2017-10-25T19:38:22.639Z,1.90
2017-10-25T19:40:48.962Z,1.40
2017-10-25T19:43:16.527Z,1.60
2017-10-25T19:45:43.692Z,1.30
2017-10-25T19:48:10.044Z,1.40
2017-10-25T19:50:36.511Z,1.40
2017-10-25T19:53:02.837Z,1.80
2017-10-25T19:55:29.310Z,2.03
2017-10-25T19:57:56.614Z,1.67
2017-10-25T20:00:22.943Z,1.80
2017-10-25T20:02:49.360Z,1.93
2017-10-25T20:05:16.489Z,1.97
2017-10-25T20:07:43.352Z,1.70
2017-10-25T20:10:09.664Z,1.50
2017-10-25T20:12:36.010Z,1.27
2017-10-25T20:15:02.752Z,1.10
2017-10-25T20:17:29.594Z,1.40
2017-10-25T20:19:56.365Z,1.33
2017-10-25T20:22:23.075Z,1.70
2017-10-25T20:24:49.389Z,1.70
2017-10-25T20:27:16.244Z,1.20
2017-10-25T20:29:42.595Z,1.30
2017-10-25T20:32:08.919Z,1.63
2017-10-25T20:34:35.611Z,1.30
2017-10-25T20:37:02.239Z,1.30
2017-10-25T20:39:29.139Z,1.30
2017-10-25T20:41:55.793Z,1.10
2017-10-25T20:44:22.159Z,1.10
2017-10-25T20:46:48.466Z,1.20
2017-10-25T20:49:14.817Z,1.30
2017-10-25T20:51:41.165Z,1.43
2017-10-25T20:54:08.057Z,1.40
2017-10-25T20:56:35.130Z,1.10
2017-10-25T20:59:01.435Z,1.20
2017-10-25T21:01:28.529Z,1.07
2017-10-25T21:03:55.283Z,1.00
2017-10-25T21:06:21.991Z,1.30
2017-10-25T21:08:49.414Z,1.40
2017-10-25T21:11:16.919Z,1.40
2017-10-25T21:13:44.436Z,1.20
2017-10-25T21:16:10.773Z,1.33
2017-10-25T21:18:37.514Z,1.20
2017-10-25T21:21:04.359Z,2.13
2017-10-25T21:23:31.281Z,2.23
2017-10-25T21:25:57.574Z,1.80
2017-10-25T21:28:23.883Z,2.00
2017-10-25T21:30:50.234Z,1.47
2017-10-25T21:33:16.578Z,2.30
2017-10-25T21:35:43.379Z,1.30
2017-10-25T21:38:10.344Z,1.50
2017-10-25T21:40:36.673Z,1.60
2017-10-25T21:43:03.039Z,1.73
2017-10-25T21:45:29.528Z,1.33
2017-10-25T21:47:55.831Z,1.83
2017-10-25T21:50:22.228Z,2.07
2017-10-25T21:52:48.679Z,1.83
2017-10-25T21:55:15.024Z,2.43
2017-10-25T21:57:41.339Z,1.97
2017-10-25T22:00:08.084Z,1.60
2017-10-25T22:02:34.736Z,1.40
2017-10-25T22:05:01.060Z,1.67
2017-10-25T22:07:27.707Z,1.60
2017-10-25T22:09:53.998Z,2.03
2017-10-25T22:12:21.034Z,3.20
2017-10-25T22:14:47.799Z,3.13
2017-10-25T22:17:15.591Z,2.47
2017-10-25T22:19:41.891Z,2.60
2017-10-25T22:22:09.607Z,3.37
2017-10-25T22:24:35.921Z,2.40
2017-10-25T22:27:02.244Z,1.77
2017-10-25T22:29:29.316Z,1.67
2017-10-25T22:31:55.614Z,2.00
2017-10-25T22:34:22.426Z,1.73
2017-10-25T22:36:49.108Z,1.30
2017-10-25T22:39:15.867Z,1.60
2017-10-25T22:41:43.256Z,1.90
2017-10-25T22:44:09.558Z,2.60
2017-10-25T22:46:36.599Z,5.90
2017-10-25T22:49:02.940Z,4.00
2017-10-25T22:51:29.240Z,2.57
2017-10-25T22:53:56.148Z,1.80
2017-10-25T22:56:23.183Z,2.10
2017-10-25T22:58:50.220Z,1.77
2017-10-25T23:01:17.084Z,1.40
2017-10-25T23:03:44.136Z,1.50
2017-10-25T23:06:11.203Z,1.50
2017-10-25T23:08:38.375Z,4.50
2017-10-25T23:11:04.673Z,2.30
2017-10-25T23:13:31.555Z,1.80
2017-10-25T23:15:57.859Z,1.43
2017-10-25T23:18:24.756Z,1.27
2017-10-25T23:20:51.455Z,1.33
2017-10-25T23:23:18.523Z,1.00
2017-10-25T23:25:45.151Z,1.10
2017-10-25T23:28:11.471Z,1.20
2017-10-25T23:30:37.769Z,1.30
2017-10-25T23:33:04.535Z,1.30
2017-10-25T23:35:31.191Z,1.40
2017-10-25T23:37:57.852Z,1.30
2017-10-25T23:40:24.167Z,1.90
2017-10-25T23:42:50.455Z,2.93
2017-10-25T23:45:16.788Z,2.87
2017-10-25T23:47:43.075Z,1.80
2017-10-25T23:50:09.486Z,1.70
2017-10-25T23:52:36.505Z,1.40
2017-10-25T23:55:04.246Z,1.40
2017-10-25T23:57:30.574Z,1.30
2017-10-25T23:59:56.877Z,1.10
